KGEV

Details ICAO KGEV
Name ASHE COUNTY
Region United States
Timezone America/New_York (UTC-4.0)
Plans Departing 2
Arriving 10
Stats Elevation 3,180 ft / 969 m (AMSL)
Location 36.432446° -81.419701°
Runways 1
Magnetic Variation 7.602° W
Sunrise 2018-05-24 10:14:14 UTC / 2018-05-24 06:14:14 Local
Sunset 2018-05-25 00:33:43 UTC / 2018-05-24 20:33:43 Local
Advertisement - Login to hide

Runways

ID Width Length Bearing (true) Bearing (mag) Surface Threshold Offset Overrun Length
10 75 ft / 23 m 4,283 ft / 1,306 m 88.87° 96.47° Asphalt 0 ft / 0 m 0 ft / 0 m
28 75 ft / 23 m 4,283 ft / 1,306 m 268.88° 276.48° Asphalt 0 ft / 0 m 0 ft / 0 m

Map

Weather


0- 5 10 15 20 25 30 35+ Temperature / ° C

Clouds and Precipitation
Forecast for 2018-05-24 12:00 UTC. Updated an hour ago

Ground ~20,000 ft ~40,000 ft Winds

METAR

KGEV 241025Z AUTO 35003KT 10SM CLR 15/13 A3024 RMK AO2 T01500133

TAF

Not found

Frequencies

Recorded 120.67 MHz AWOS 3
Approach 125.15 MHz ATLANTA APP/DEP
Unicom 122.80 MHz CTAF/UNICOM
Warning: Do not use this data for real-world aviation or navigation. No guarantee of current accuracy is given.